Time;durP1;ratioP1;P1;durP2;ratioP2;P2;SDS_P1;SDS_P2;PMS_P1;PMS_P2;Temp;Humidity;BMP_temperature;BMP_pressure;BME280_temperature;BME280_humidity;BME280_pressure;Samples;Min_cycle;Max_cycle;Signal;HPM_P1;HPM_P2
2023/04/22 00:00:53;;;;;;;9.80;8.95;;;10.30;99.90;;;11.02;100.00;97317.56;5110491;28;20209;-63
2023/04/22 00:03:27;;;;;;;9.80;8.90;;;10.30;99.90;;;11.15;100.00;97303.63;5116195;28;20201;-63
2023/04/22 00:06:00;;;;;;;9.55;8.85;;;10.30;99.90;;;11.11;100.00;97312.84;5113202;28;20579;-63
2023/04/22 00:08:33;;;;;;;9.50;8.70;;;10.40;99.90;;;11.10;100.00;97311.06;5106683;28;20700;-63
2023/04/22 00:11:07;;;;;;;10.05;9.23;;;10.30;99.90;;;11.02;100.00;97315.88;5112275;28;20227;-63
2023/04/22 00:13:40;;;;;;;9.35;8.63;;;10.30;99.90;;;11.01;100.00;97308.97;5111948;28;20211;-63
2023/04/22 00:16:14;;;;;;;10.68;9.68;;;10.30;99.90;;;10.98;100.00;97303.72;5111347;28;20209;-64
2023/04/22 00:18:47;;;;;;;10.07;9.18;;;10.20;99.90;;;10.95;100.00;97310.38;5100818;28;20644;-64
2023/04/22 00:21:20;;;;;;;9.90;9.10;;;10.20;99.90;;;10.95;100.00;97298.47;5108672;28;20193;-63
2023/04/22 00:23:54;;;;;;;10.70;9.75;;;10.20;99.90;;;10.92;100.00;97302.56;5114566;28;20201;-65
2023/04/22 00:26:27;;;;;;;10.10;9.27;;;10.20;99.90;;;10.87;100.00;97299.78;5109749;28;20215;-64
2023/04/22 00:29:00;;;;;;;10.10;9.23;;;10.20;99.90;;;10.73;100.00;97301.72;5111712;28;20232;-64
2023/04/22 00:31:34;;;;;;;11.18;10.27;;;10.10;99.90;;;10.70;100.00;97293.91;5102555;28;20229;-63
2023/04/22 00:34:07;;;;;;;11.27;10.32;;;10.10;99.90;;;10.66;100.00;97294.56;5116388;28;20200;-64
2023/04/22 00:36:40;;;;;;;12.27;11.00;;;10.10;99.90;;;10.74;100.00;97293.25;5110551;28;20619;-64
2023/04/22 00:39:13;;;;;;;11.10;10.20;;;10.10;99.90;;;10.75;100.00;97289.88;5112507;29;20224;-63
2023/04/22 00:41:47;;;;;;;11.73;10.73;;;10.10;99.90;;;10.71;100.00;97297.34;5112529;28;20204;-64
2023/04/22 00:44:20;;;;;;;12.40;11.20;;;10.10;99.90;;;10.77;100.00;97303.59;5115794;28;20203;-64
2023/04/22 00:46:55;;;;;;;11.82;10.93;;;10.10;99.90;;;10.87;100.00;97298.91;5109912;28;20205;-64
2023/04/22 00:49:29;;;;;;;12.10;11.10;;;10.10;99.90;;;10.78;100.00;97284.03;5114879;28;20308;-64
2023/04/22 00:52:02;;;;;;;11.23;10.32;;;10.10;99.90;;;10.66;100.00;97292.00;5114756;28;20217;-64
2023/04/22 00:54:35;;;;;;;11.52;10.45;;;10.00;99.90;;;10.63;100.00;97298.66;5108647;29;20204;-64
2023/04/22 00:57:08;;;;;;;11.07;10.07;;;10.00;99.90;;;10.52;100.00;97304.13;5108251;28;20204;-64
2023/04/22 00:59:42;;;;;;;11.35;10.45;;;9.90;99.90;;;10.50;100.00;97302.28;5107028;28;20212;-64
2023/04/22 01:02:17;;;;;;;11.18;10.27;;;9.90;99.90;;;10.56;100.00;97302.59;5111734;28;20223;-64
2023/04/22 01:04:53;;;;;;;10.80;9.90;;;9.90;99.90;;;10.56;100.00;97298.38;5108462;28;20219;-63
2023/04/22 01:07:26;;;;;;;13.02;11.95;;;9.90;99.90;;;10.54;100.00;97304.19;5111063;28;20306;-64
2023/04/22 01:09:59;;;;;;;12.50;11.40;;;9.90;99.90;;;10.49;100.00;97310.75;5110259;28;20351;-63
2023/04/22 01:12:32;;;;;;;11.98;10.98;;;9.90;99.90;;;10.36;100.00;97301.66;5107302;28;20236;-64
2023/04/22 01:15:08;;;;;;;12.43;11.43;;;9.80;99.90;;;10.40;100.00;97300.09;5111383;28;20216;-62
2023/04/22 01:17:43;;;;;;;13.20;11.90;;;9.80;99.90;;;10.34;100.00;97301.56;5110108;29;20696;-65
2023/04/22 01:20:16;;;;;;;13.18;11.98;;;9.80;99.90;;;10.34;100.00;97300.69;5107381;28;20208;-62
2023/04/22 01:22:50;;;;;;;13.13;11.93;;;9.80;99.90;;;10.22;100.00;97306.03;5114538;28;20201;-64
2023/04/22 01:25:25;;;;;;;12.00;10.90;;;9.80;99.90;;;10.31;100.00;97296.28;5111052;28;20204;-65
2023/04/22 01:27:58;;;;;;;12.48;11.45;;;9.80;99.90;;;10.30;100.00;97296.22;5113181;28;20231;-63
2023/04/22 01:30:32;;;;;;;12.40;11.20;;;9.80;99.90;;;10.31;100.00;97293.75;5107628;28;20209;-64
2023/04/22 01:33:05;;;;;;;11.93;10.88;;;9.70;99.90;;;10.31;100.00;97298.84;5111693;28;20221;-64
2023/04/22 01:35:40;;;;;;;13.00;11.93;;;9.70;99.90;;;10.22;100.00;97300.06;5114407;28;20646;-64
2023/04/22 01:38:13;;;;;;;12.50;11.45;;;9.70;99.90;;;10.21;100.00;97299.16;5113048;28;20270;-64
2023/04/22 01:40:48;;;;;;;13.40;12.27;;;9.60;99.90;;;10.13;100.00;97298.78;5110067;28;20209;-65
2023/04/22 01:43:21;;;;;;;13.38;12.07;;;9.60;99.90;;;10.14;100.00;97299.66;5114810;28;20204;-64
2023/04/22 01:45:54;;;;;;;13.27;12.18;;;9.60;99.90;;;10.01;100.00;97300.72;5115455;28;20206;-63
2023/04/22 01:48:27;;;;;;;12.65;11.55;;;9.60;99.90;;;9.89;100.00;97306.09;5110446;28;20235;-64
2023/04/22 01:51:00;;;;;;;12.40;11.35;;;9.60;99.90;;;9.97;100.00;97306.47;5112472;28;20209;-65
2023/04/22 01:53:33;;;;;;;11.85;10.75;;;9.60;99.90;;;9.86;100.00;97300.84;5113255;28;20604;-64
2023/04/22 01:56:08;;;;;;;13.60;12.43;;;9.60;99.90;;;9.87;100.00;97305.16;5114666;28;20211;-62
2023/04/22 01:58:41;;;;;;;12.65;11.50;;;9.60;99.90;;;9.94;100.00;97308.88;5116064;28;20597;-64
2023/04/22 02:01:15;;;;;;;12.77;11.60;;;9.60;99.90;;;9.98;100.00;97309.91;5112225;28;20209;-62
2023/04/22 02:03:48;;;;;;;12.23;11.23;;;9.60;99.90;;;9.96;100.00;97309.84;5113100;28;20286;-64
2023/04/22 02:06:21;;;;;;;12.65;11.55;;;9.60;99.90;;;9.91;100.00;97304.50;5111529;28;20633;-65
2023/04/22 02:08:54;;;;;;;12.27;11.18;;;9.60;99.90;;;9.90;100.00;97307.88;5116750;28;20252;-65
2023/04/22 02:11:28;;;;;;;12.65;11.45;;;9.50;99.90;;;9.90;100.00;97310.41;5114766;28;20576;-65
2023/04/22 02:14:02;;;;;;;11.98;10.77;;;9.50;99.90;;;9.99;100.00;97307.44;5119216;29;20659;-62
2023/04/22 02:16:35;;;;;;;12.20;11.00;;;9.50;99.90;;;9.95;100.00;97309.75;5119296;28;20598;-63
2023/04/22 02:19:08;;;;;;;11.63;10.52;;;9.40;99.90;;;9.94;100.00;97311.44;5119571;28;20700;-63
2023/04/22 02:21:41;;;;;;;11.93;10.93;;;9.40;99.90;;;10.01;100.00;97315.16;5117862;28;20204;-64
2023/04/22 02:24:14;;;;;;;11.52;10.52;;;9.40;99.90;;;9.97;100.00;97318.38;5118202;29;20675;-64
2023/04/22 02:26:49;;;;;;;11.80;10.90;;;9.50;99.90;;;9.83;100.00;97320.22;5131708;28;20573;-64
2023/04/22 02:29:23;;;;;;;11.80;10.90;;;9.40;99.90;;;10.01;100.00;97312.63;5118523;28;20680;-64
2023/04/22 02:31:56;;;;;;;12.40;11.23;;;9.40;99.90;;;9.95;100.00;97310.63;5110743;28;20647;-64
2023/04/22 02:34:29;;;;;;;11.10;10.23;;;9.40;99.90;;;9.95;100.00;97314.88;5118181;28;20270;-64
2023/04/22 02:37:02;;;;;;;12.23;11.10;;;9.40;99.90;;;9.94;100.00;97314.00;5117287;28;20224;-64
2023/04/22 02:39:35;;;;;;;11.25;10.35;;;9.30;99.90;;;9.87;100.00;97317.91;5118035;28;20680;-65
2023/04/22 02:42:09;;;;;;;11.40;10.50;;;9.30;99.90;;;9.86;100.00;97316.16;5118503;28;20209;-63
2023/04/22 02:44:42;;;;;;;11.23;10.33;;;9.30;99.90;;;9.90;100.00;97314.63;5115507;29;20561;-65
2023/04/22 02:47:15;;;;;;;10.85;10.05;;;9.30;99.90;;;9.90;100.00;97315.53;5118383;28;20296;-65
2023/04/22 02:49:48;;;;;;;11.00;10.00;;;9.30;99.90;;;9.85;100.00;97306.75;5119594;28;20567;-64
2023/04/22 02:52:21;;;;;;;11.02;10.13;;;9.30;99.90;;;9.88;100.00;97312.00;5116025;28;20591;-63
2023/04/22 02:54:55;;;;;;;10.18;9.32;;;9.30;99.90;;;9.92;100.00;97306.25;5114989;28;20756;-64
2023/04/22 02:57:29;;;;;;;10.02;9.13;;;9.30;99.90;;;9.93;100.00;97308.00;5115033;28;20211;-64
2023/04/22 03:00:04;;;;;;;10.00;9.27;;;9.30;99.90;;;9.97;100.00;97309.03;5116605;28;20569;-65
2023/04/22 03:02:37;;;;;;;10.57;9.57;;;9.30;99.90;;;10.04;100.00;97307.66;5112092;28;20211;-64
2023/04/22 03:05:10;;;;;;;9.52;8.80;;;9.40;99.90;;;10.09;100.00;97316.44;5110693;28;20200;-64
2023/04/22 03:07:46;;;;;;;23.38;20.92;;;9.40;99.90;;;10.13;100.00;97318.34;5116789;28;20604;-62
2023/04/22 03:10:19;;;;;;;18.40;16.45;;;9.40;99.90;;;10.10;100.00;97313.97;5105827;28;20217;-62
2023/04/22 03:12:54;;;;;;;24.15;20.70;;;9.40;99.90;;;10.11;100.00;97318.25;5116524;28;20209;-67
2023/04/22 03:15:26;;;;;;;14.52;12.93;;;9.30;99.90;;;10.10;100.00;97315.63;5113640;28;20553;-64
2023/04/22 03:17:59;;;;;;;11.80;10.70;;;9.30;99.90;;;10.08;100.00;97322.34;5111368;28;20239;-63
2023/04/22 03:20:33;;;;;;;11.18;10.18;;;9.30;99.90;;;10.07;100.00;97323.13;5116980;28;20590;-68
2023/04/22 03:23:06;;;;;;;10.55;9.65;;;9.30;99.90;;;10.06;100.00;97313.72;5116726;28;20204;-66
2023/04/22 03:25:39;;;;;;;11.88;10.75;;;9.20;99.90;;;10.03;100.00;97311.03;5118345;28;20219;-65
2023/04/22 03:28:14;;;;;;;9.88;9.02;;;9.20;99.90;;;9.95;100.00;97317.41;5123749;28;20231;-63
2023/04/22 03:30:47;;;;;;;10.07;9.27;;;9.10;99.90;;;9.82;100.00;97316.81;5110309;28;20205;-63
2023/04/22 03:33:20;;;;;;;8.82;8.13;;;9.10;99.90;;;9.75;100.00;97321.50;5138831;28;20226;-63
2023/04/22 03:35:54;;;;;;;10.55;9.65;;;9.00;99.90;;;9.66;100.00;97322.78;5114501;28;20526;-63
2023/04/22 03:38:27;;;;;;;9.95;9.15;;;8.90;99.90;;;9.67;100.00;97321.09;5115011;28;20231;-64
2023/04/22 03:41:00;;;;;;;9.73;8.93;;;8.90;99.90;;;9.71;100.00;97325.59;5117088;28;20205;-68
2023/04/22 03:43:35;;;;;;;9.77;8.98;;;8.90;99.90;;;9.68;100.00;97326.28;5117487;29;20657;-63
2023/04/22 03:46:08;;;;;;;9.10;8.40;;;8.90;99.90;;;9.71;100.00;97325.59;5111168;28;20204;-63
2023/04/22 03:48:41;;;;;;;9.38;8.60;;;8.90;99.90;;;9.63;100.00;97326.84;5116364;28;20700;-65
2023/04/22 03:51:14;;;;;;;9.70;8.90;;;8.90;99.90;;;9.64;100.00;97323.50;5120967;28;20204;-62
2023/04/22 03:53:47;;;;;;;8.50;7.85;;;8.90;99.90;;;9.64;100.00;97323.50;5113179;28;20216;-63
2023/04/22 03:56:20;;;;;;;9.70;8.90;;;8.90;99.90;;;9.68;100.00;97320.31;5115865;28;20205;-63
2023/04/22 03:58:54;;;;;;;9.57;8.82;;;8.90;99.90;;;9.58;100.00;97323.19;5109284;28;20224;-65
2023/04/22 04:01:27;;;;;;;9.85;9.10;;;8.80;99.90;;;9.58;100.00;97328.28;5113208;28;20668;-64
2023/04/22 04:04:00;;;;;;;9.23;8.43;;;8.80;99.90;;;9.59;100.00;97330.94;5118136;29;20205;-62
2023/04/22 04:06:34;;;;;;;9.75;8.90;;;8.90;99.90;;;9.60;100.00;97326.69;5111207;28;20295;-63
2023/04/22 04:09:07;;;;;;;8.90;8.20;;;8.90;99.90;;;9.62;100.00;97325.13;5112909;28;20232;-62
2023/04/22 04:11:40;;;;;;;8.80;8.10;;;8.80;99.90;;;9.66;100.00;97319.34;5112071;28;20703;-63
2023/04/22 04:14:14;;;;;;;9.45;8.65;;;8.90;99.90;;;9.66;100.00;97312.56;5115710;28;20232;-62
2023/04/22 04:16:47;;;;;;;9.77;8.82;;;8.90;99.90;;;9.63;100.00;97316.66;5113528;28;20550;-62
2023/04/22 04:19:20;;;;;;;9.05;8.30;;;8.90;99.90;;;9.63;100.00;97320.06;5113780;28;20235;-63
2023/04/22 04:21:54;;;;;;;9.00;8.40;;;8.90;99.90;;;9.57;100.00;97312.09;5107818;28;20212;-63
2023/04/22 04:24:27;;;;;;;10.05;8.60;;;8.90;99.90;;;9.58;100.00;97321.50;5116312;28;20279;-63
2023/04/22 04:27:00;;;;;;;8.43;7.72;;;8.80;99.90;;;9.64;100.00;97319.28;5108111;28;20209;-66
2023/04/22 04:29:35;;;;;;;8.48;7.68;;;8.90;99.90;;;9.64;100.00;97311.66;5118243;28;20232;-64
2023/04/22 04:32:09;;;;;;;8.30;7.63;;;8.90;99.90;;;9.59;100.00;97312.19;5114500;28;20589;-62
2023/04/22 04:34:42;;;;;;;8.00;7.38;;;8.90;99.90;;;9.65;100.00;97315.06;5113325;28;20227;-63
2023/04/22 04:37:16;;;;;;;7.65;7.05;;;8.90;99.90;;;9.61;100.00;97302.94;5113847;28;20200;-66
2023/04/22 04:39:49;;;;;;;7.68;7.07;;;8.90;99.90;;;9.50;100.00;97311.69;5115750;28;20222;-63
2023/04/22 04:42:23;;;;;;;7.55;6.88;;;8.80;99.90;;;9.60;100.00;97311.41;5116390;28;20217;-65
2023/04/22 04:44:58;;;;;;;7.03;6.43;;;8.90;99.90;;;9.65;100.00;97303.19;5105101;28;20848;-63
2023/04/22 04:47:33;;;;;;;7.40;6.80;;;8.90;99.90;;;9.57;100.00;97303.59;5110128;28;20687;-62
2023/04/22 04:50:07;;;;;;;6.97;6.47;;;8.80;99.90;;;9.59;100.00;97307.97;5109958;28;20204;-65
2023/04/22 04:52:40;;;;;;;7.35;6.75;;;8.90;99.90;;;9.67;100.00;97303.25;5110465;28;20208;-65
2023/04/22 04:55:13;;;;;;;7.47;6.88;;;8.90;99.90;;;9.64;100.00;97301.44;5113728;28;20228;-71
2023/04/22 04:57:47;;;;;;;8.15;7.43;;;8.90;99.90;;;9.71;100.00;97294.97;5109277;28;20229;-65
2023/04/22 05:00:21;;;;;;;8.02;7.32;;;8.90;99.90;;;9.66;100.00;97297.25;5109281;28;20570;-63
2023/04/22 05:02:54;;;;;;;7.68;6.90;;;8.90;99.90;;;9.56;100.00;97299.28;5105103;28;20196;-62
2023/04/22 05:05:28;;;;;;;8.05;7.25;;;8.90;99.90;;;9.64;100.00;97297.97;5120385;28;20209;-64
2023/04/22 05:08:01;;;;;;;8.18;7.47;;;8.90;99.90;;;9.69;100.00;97304.19;5115357;28;20225;-66
2023/04/22 05:10:34;;;;;;;7.55;6.95;;;9.00;99.90;;;9.84;100.00;97307.56;5116260;29;20219;-65
2023/04/22 05:13:07;;;;;;;7.50;6.90;;;9.10;99.90;;;9.86;100.00;97311.03;5110460;28;20316;-67
2023/04/22 05:15:41;;;;;;;6.65;6.15;;;9.20;99.90;;;9.92;100.00;97318.13;5114129;28;20228;-71
2023/04/22 05:18:14;;;;;;;6.65;6.15;;;9.20;99.90;;;9.92;100.00;97316.44;5112766;28;20620;-64
2023/04/22 05:20:47;;;;;;;7.45;6.85;;;9.20;99.90;;;9.91;100.00;97314.72;5109691;28;20201;-64
2023/04/22 05:23:20;;;;;;;6.78;6.28;;;9.20;99.90;;;9.89;100.00;97312.88;5111661;28;20215;-63
2023/04/22 05:25:53;;;;;;;6.72;6.15;;;9.20;99.90;;;9.93;100.00;97318.22;5110848;28;20205;-65
2023/04/22 05:28:26;;;;;;;6.45;5.85;;;9.30;99.90;;;10.04;100.00;97331.50;5108735;28;20232;-64
2023/04/22 05:31:01;;;;;;;7.18;6.63;;;9.30;99.90;;;10.00;100.00;97324.50;5104184;28;20213;-62
2023/04/22 05:33:34;;;;;;;6.10;5.60;;;9.30;99.90;;;10.06;100.00;97317.16;5102249;28;20239;-69
2023/04/22 05:36:07;;;;;;;6.60;6.10;;;9.30;99.90;;;10.00;100.00;97318.53;5102689;28;20209;-66
2023/04/22 05:38:40;;;;;;;6.47;5.97;;;9.30;99.90;;;9.98;100.00;97325.22;5104231;28;20325;-63
2023/04/22 05:41:13;;;;;;;6.45;5.95;;;9.30;99.90;;;10.00;100.00;97319.41;5102675;28;20205;-65
2023/04/22 05:43:46;;;;;;;6.72;6.13;;;9.30;99.90;;;9.81;100.00;97321.81;5102181;28;20201;-64
2023/04/22 05:46:21;;;;;;;6.85;6.20;;;9.30;99.90;;;9.91;100.00;97318.94;5110401;29;20229;-66
2023/04/22 05:48:54;;;;;;;7.07;6.47;;;9.30;99.90;;;10.07;100.00;97316.38;5106101;28;20285;-63
2023/04/22 05:51:27;;;;;;;6.65;6.10;;;9.40;99.90;;;10.14;100.00;97320.97;5109096;28;20255;-63
2023/04/22 05:54:00;;;;;;;6.20;5.70;;;9.40;99.90;;;10.20;100.00;97311.88;5111031;28;20225;-62
2023/04/22 05:56:33;;;;;;;6.82;6.32;;;9.50;99.90;;;10.20;100.00;97314.41;5107741;29;20208;-63
2023/04/22 05:59:06;;;;;;;7.05;6.40;;;9.50;99.90;;;10.25;100.00;97316.41;5107950;28;20233;-64
2023/04/22 06:01:41;;;;;;;6.35;5.78;;;9.60;99.90;;;10.35;100.00;97317.75;5113992;28;20205;-64
2023/04/22 06:04:14;;;;;;;6.20;5.70;;;9.60;99.90;;;10.42;100.00;97321.50;5122640;28;20223;-63
2023/04/22 06:06:48;;;;;;;6.20;5.75;;;9.70;99.90;;;10.51;100.00;97322.81;5114332;29;20262;-64
2023/04/22 06:09:21;;;;;;;6.07;5.57;;;9.80;99.90;;;10.63;100.00;97327.63;5111826;28;20229;-63
2023/04/22 06:11:55;;;;;;;5.55;5.20;;;9.90;99.90;;;10.64;99.81;97331.06;5109638;28;20219;-66
2023/04/22 06:14:28;;;;;;;5.72;5.28;;;9.90;99.90;;;10.76;99.33;97332.53;5110318;29;20247;-66
2023/04/22 06:17:03;;;;;;;5.63;5.13;;;10.00;99.90;;;10.84;98.94;97332.88;5111114;28;20691;-64
2023/04/22 06:19:37;;;;;;;5.93;5.30;;;10.10;99.90;;;10.99;97.90;97335.31;5114874;28;20228;-63
2023/04/22 06:22:10;;;;;;;6.53;5.93;;;10.20;99.90;;;11.09;98.26;97328.94;5111315;28;20205;-62
2023/04/22 06:24:43;;;;;;;6.55;5.95;;;10.30;99.90;;;11.22;98.22;97334.69;5116315;28;20866;-62
2023/04/22 06:27:18;;;;;;;6.30;5.80;;;10.40;99.90;;;11.42;97.34;97329.59;5112114;28;20211;-65
2023/04/22 06:29:51;;;;;;;7.43;5.47;;;10.50;99.90;;;11.42;95.00;97332.16;5110199;28;20212;-69
2023/04/22 06:32:26;;;;;;;7.13;6.38;;;10.60;99.90;;;11.52;94.99;97334.31;5114228;28;20875;-64
2023/04/22 06:34:59;;;;;;;6.25;5.75;;;10.70;99.90;;;11.67;94.36;97324.75;5116053;28;20687;-64
2023/04/22 06:37:32;;;;;;;6.40;6.00;;;10.90;99.90;;;11.90;93.53;97327.47;5108674;28;20243;-65
2023/04/22 06:40:07;;;;;;;6.03;5.60;;;11.00;99.90;;;12.07;93.49;97336.75;5106864;28;20205;-63
2023/04/22 06:42:40;;;;;;;6.75;6.10;;;11.20;99.90;;;12.34;91.73;97336.19;5106162;28;20220;-63
2023/04/22 06:45:13;;;;;;;6.78;6.18;;;11.40;99.90;;;12.35;88.55;97336.22;5114561;28;20220;-64
2023/04/22 06:47:47;;;;;;;6.20;5.70;;;11.60;99.90;;;12.51;87.70;97335.19;5108979;28;20221;-65
2023/04/22 06:50:21;;;;;;;5.72;5.22;;;11.70;99.90;;;12.59;87.04;97338.94;5112155;28;20299;-63
2023/04/22 06:52:54;;;;;;;5.68;5.28;;;11.80;99.90;;;12.87;87.78;97334.03;5114009;28;20193;-63
2023/04/22 06:55:27;;;;;;;5.32;4.93;;;12.00;99.90;;;13.18;86.17;97336.09;5113886;28;20225;-65
2023/04/22 06:58:00;;;;;;;5.55;5.15;;;12.20;99.90;;;13.54;83.22;97330.63;5107682;28;20243;-67
2023/04/22 07:00:33;;;;;;;5.25;4.85;;;12.60;99.90;;;13.74;81.62;97337.38;5107183;28;20204;-65
2023/04/22 07:03:08;;;;;;;5.05;4.65;;;12.80;99.90;;;14.17;78.11;97341.44;5106791;28;20224;-63
2023/04/22 07:05:41;;;;;;;5.18;4.78;;;13.20;99.90;;;14.13;75.45;97339.56;5113799;28;20204;-64
2023/04/22 07:08:14;;;;;;;4.97;4.47;;;13.30;99.90;;;14.58;74.77;97334.28;5107128;28;20228;-64
2023/04/22 07:10:47;;;;;;;4.07;3.78;;;13.60;99.90;;;15.05;73.79;97333.22;5110445;28;20335;-63
2023/04/22 07:13:20;;;;;;;4.32;3.92;;;13.80;99.90;;;15.23;72.55;97330.34;5109680;28;20547;-63
2023/04/22 07:15:53;;;;;;;4.45;4.15;;;14.20;99.90;;;15.55;71.17;97335.56;5112446;28;20243;-64
2023/04/22 07:18:28;;;;;;;4.50;4.10;;;14.30;99.90;;;15.62;69.22;97334.91;5110853;28;20224;-65
2023/04/22 07:21:01;;;;;;;4.10;3.80;;;14.50;99.90;;;15.72;70.96;97334.38;5107851;28;20205;-64
2023/04/22 07:23:35;;;;;;;4.28;3.97;;;14.50;99.90;;;16.03;68.49;97334.38;5109753;28;20300;-66
2023/04/22 07:26:08;;;;;;;4.15;3.75;;;14.80;99.90;;;15.97;68.70;97324.75;5107797;28;20206;-67
2023/04/22 07:28:41;;;;;;;4.97;4.03;;;14.80;99.90;;;16.08;69.85;97323.34;5109522;28;20235;-62
2023/04/22 07:31:14;;;;;;;4.22;3.92;;;14.90;99.90;;;16.21;70.82;97320.25;5104039;29;20603;-67
2023/04/22 07:33:48;;;;;;;4.00;3.70;;;15.00;99.90;;;16.29;68.99;97323.03;5110070;28;20217;-65
2023/04/22 07:36:21;;;;;;;4.20;3.85;;;15.10;99.90;;;16.31;69.15;97315.31;5101142;28;20415;-63
2023/04/22 07:38:54;;;;;;;3.13;2.92;;;15.10;99.90;;;16.52;67.35;97315.00;5102828;28;20228;-64
2023/04/22 07:41:27;;;;;;;3.17;2.97;;;15.40;99.90;;;16.73;63.01;97309.47;5104508;28;20204;-63
2023/04/22 07:44:00;;;;;;;3.60;3.40;;;15.60;99.90;;;16.98;60.83;97309.25;5109558;28;20205;-64
2023/04/22 07:46:34;;;;;;;3.40;3.10;;;16.00;99.90;;;17.18;61.72;97306.25;5107899;28;20204;-63
2023/04/22 07:49:08;;;;;;;3.47;3.20;;;16.10;99.90;;;17.56;58.45;97304.47;5108199;28;20730;-63
2023/04/22 07:51:42;;;;;;;2.92;2.72;;;16.50;99.90;;;17.61;57.81;97308.03;5108364;28;20212;-65
2023/04/22 07:54:15;;;;;;;2.70;2.50;;;16.70;99.90;;;17.84;55.93;97305.94;5106758;28;20363;-63
2023/04/22 07:56:48;;;;;;;2.90;2.70;;;16.90;99.90;;;17.99;52.31;97303.63;5104684;28;20221;-65
2023/04/22 07:59:21;;;;;;;4.75;2.85;;;17.20;99.90;;;18.05;54.29;97302.00;5104584;28;20606;-64
2023/04/22 08:01:54;;;;;;;2.50;2.30;;;17.20;99.90;;;18.36;52.09;97296.53;5102345;28;20212;-63
2023/04/22 08:04:28;;;;;;;2.70;2.50;;;17.60;99.90;;;18.39;51.13;97294.00;5113923;29;20215;-66
2023/04/22 08:07:02;;;;;;;2.60;2.40;;;17.60;99.90;;;18.53;51.82;97290.78;5110310;28;20261;-65
2023/04/22 08:09:55;;;;;;;2.83;2.22;;;17.70;99.90;;;18.84;50.07;97285.28;5109601;28;20665;-64
2023/04/22 08:12:29;;;;;;;3.00;2.80;;;18.00;99.30;;;18.78;49.89;97284.31;5103153;28;20209;-65
2023/04/22 08:15:02;;;;;;;2.30;2.20;;;17.90;99.20;;;18.89;51.37;97281.06;5108804;28;20224;-66
2023/04/22 08:17:35;;;;;;;2.40;2.30;;;18.10;99.50;;;19.01;50.29;97279.50;5106611;28;20236;-65
2023/04/22 08:20:10;;;;;;;2.42;2.22;;;18.20;99.10;;;19.20;48.60;97276.31;5106853;28;20208;-64
2023/04/22 08:22:43;;;;;;;2.50;2.30;;;18.50;97.90;;;19.36;50.43;97287.75;5107196;28;20215;-66
2023/04/22 08:25:17;;;;;;;2.20;2.10;;;18.50;99.30;;;19.37;48.46;97281.69;5107197;28;20216;-63
2023/04/22 08:27:50;;;;;;;3.00;2.13;;;18.60;97.30;;;19.59;49.34;97275.06;5108510;28;20225;-63
2023/04/22 08:30:23;;;;;;;2.58;2.38;;;18.90;98.00;;;19.62;47.23;97284.59;5110673;28;20205;-64
2023/04/22 08:32:56;;;;;;;2.55;2.35;;;19.10;96.30;;;19.78;46.66;97281.38;5111223;28;20212;-63
2023/04/22 08:35:31;;;;;;;2.25;2.15;;;19.10;95.80;;;19.65;47.10;97285.53;5106064;28;20230;-66
2023/04/22 08:38:04;;;;;;;2.10;1.90;;;19.10;96.00;;;20.07;48.80;97289.47;5111248;28;20220;-62
2023/04/22 08:40:40;;;;;;;2.92;2.72;;;19.40;97.30;;;20.44;47.27;97290.72;5115219;28;20209;-67
2023/04/22 08:43:13;;;;;;;3.17;2.40;;;19.70;95.90;;;20.66;46.07;97291.81;5111444;28;20208;-65
2023/04/22 08:45:48;;;;;;;3.42;3.10;;;19.90;95.50;;;20.82;46.10;97279.78;5114745;28;20762;-63
2023/04/22 08:48:21;;;;;;;2.40;2.20;;;20.00;95.70;;;20.86;45.41;97288.47;5113332;28;20220;-63
2023/04/22 08:50:56;;;;;;;2.50;2.30;;;20.00;95.50;;;21.24;43.72;97288.72;5113847;28;20205;-62
2023/04/22 08:53:29;;;;;;;2.70;2.50;;;20.40;94.00;;;21.45;43.47;97285.41;5114015;28;20212;-62
2023/04/22 08:56:02;;;;;;;2.47;2.17;;;20.60;94.20;;;21.35;43.14;97292.25;5115023;28;20232;-66
2023/04/22 08:58:37;;;;;;;2.30;2.08;;;20.50;93.50;;;21.45;42.13;97287.13;5111868;28;20235;-65
2023/04/22 09:01:10;;;;;;;2.35;2.15;;;20.50;92.70;;;21.65;42.09;97288.09;5115851;28;20212;-65
2023/04/22 09:03:43;;;;;;;2.13;2.03;;;20.70;92.80;;;21.65;41.48;97288.09;5108041;28;20258;-64
2023/04/22 09:06:21;;;;;;;4.25;3.70;;;20.80;92.00;;;21.62;42.55;97284.59;5111898;28;20643;-64
2023/04/22 09:08:54;;;;;;;2.72;2.53;;;20.80;92.70;;;21.63;42.73;97288.94;5117093;28;20246;-63
2023/04/22 09:11:27;;;;;;;2.25;2.05;;;20.70;92.60;;;21.51;41.55;97282.81;5107599;28;20209;-64
2023/04/22 09:14:01;;;;;;;2.40;2.20;;;20.50;91.90;;;21.77;40.97;97287.25;5113007;28;20660;-65
2023/04/22 09:16:40;;;;;;;2.30;2.10;;;20.70;91.80;;;21.78;41.42;97289.00;5111614;28;20585;-64
2023/04/22 09:19:15;;;;;;;2.30;2.10;;;20.90;92.00;;;21.58;41.51;97284.59;5117049;29;20688;-65
2023/04/22 09:21:49;;;;;;;2.15;1.98;;;20.60;91.70;;;21.62;42.02;97282.00;5119386;28;20617;-65
2023/04/22 09:24:26;;;;;;;1.92;1.83;;;20.70;92.00;;;21.79;41.50;97282.94;5118698;28;20211;-64
2023/04/22 09:27:02;;;;;;;2.25;2.15;;;20.90;91.90;;;21.71;41.71;97277.69;5116734;28;20197;-64
2023/04/22 09:29:35;;;;;;;2.45;2.25;;;20.80;91.90;;;21.65;43.48;97282.00;5114605;28;20229;-64
2023/04/22 09:32:12;;;;;;;3.17;2.88;;;20.70;93.50;;;21.61;43.17;97290.69;5119375;28;20578;-65
2023/04/22 09:34:52;;;;;;;5.32;4.03;;;20.60;93.00;;;21.81;42.63;97278.63;5116382;28;20294;-64
2023/04/22 09:37:27;;;;;;;3.30;2.97;;;20.80;92.70;;;21.89;42.21;97281.22;5120984;28;20225;-65
2023/04/22 09:40:19;;;;;;;2.60;2.40;;;21.00;92.20;;;21.85;42.07;97276.88;5113521;28;20829;-65
2023/04/22 09:42:54;;;;;;;2.00;1.90;;;20.90;92.30;;;22.00;40.86;97279.53;5116785;28;20193;-65
2023/04/22 09:45:30;;;;;;;2.63;2.20;;;21.00;91.40;;;21.94;39.75;97280.38;5118276;28;20201;-64
2023/04/22 09:48:08;;;;;;;2.28;2.05;;;21.10;90.30;;;21.94;39.55;97271.69;5121225;28;20239;-65
2023/04/22 09:50:45;;;;;;;2.05;1.95;;;21.00;89.60;;;21.90;42.17;97273.44;5115670;29;20205;-64
2023/04/22 09:53:21;;;;;;;1.95;1.85;;;21.00;92.20;;;22.11;40.27;97263.94;5119396;29;20196;-65
2023/04/22 09:55:55;;;;;;;2.20;2.03;;;21.20;90.60;;;22.15;40.30;97260.44;5119278;28;20239;-65
2023/04/22 09:58:28;;;;;;;2.38;2.17;;;21.30;90.60;;;22.39;41.90;97251.84;5110143;28;20601;-65
2023/04/22 10:01:02;;;;;;;2.67;2.13;;;21.60;91.70;;;22.64;40.76;97255.34;5115046;28;20205;-64
2023/04/22 10:03:35;;;;;;;2.20;1.98;;;21.70;90.70;;;22.68;39.80;97257.06;5116024;28;20260;-64
2023/04/22 10:06:08;;;;;;;2.10;2.00;;;21.80;90.60;;;22.57;39.03;97245.78;5120522;28;20197;-65
2023/04/22 10:08:44;;;;;;;2.22;1.80;;;21.60;88.80;;;22.23;39.41;97248.34;5121066;28;20239;-65
2023/04/22 10:11:17;;;;;;;1.92;1.80;;;21.50;89.20;;;22.63;38.98;97245.75;5112765;28;20212;-65
2023/04/22 10:13:51;;;;;;;2.05;1.77;;;21.80;88.90;;;22.53;39.93;97236.22;5117266;28;20209;-65
2023/04/22 10:16:25;;;;;;;2.40;2.20;;;21.60;90.20;;;22.40;39.89;97233.59;5120606;28;20696;-65
2023/04/22 10:19:02;;;;;;;2.17;1.80;;;21.60;90.30;;;22.54;39.93;97235.34;5127596;28;20238;-64
2023/04/22 10:21:36;;;;;;;2.05;1.70;;;21.70;90.00;;;22.56;39.60;97238.84;5119414;28;20204;-64
2023/04/22 10:24:16;;;;;;;3.00;1.98;;;21.70;89.40;;;22.67;37.10;97234.50;5114333;28;20204;-65
2023/04/22 10:26:55;;;;;;;2.00;1.90;;;21.80;85.50;;;22.72;39.10;97240.56;5115835;29;20193;-64
2023/04/22 10:29:39;;;;;;;1.85;1.75;;;21.90;88.90;;;22.93;38.38;97235.31;5111376;28;20674;-65
2023/04/22 10:32:27;;;;;;;1.70;1.60;;;22.20;88.10;;;23.00;37.88;97230.09;5108849;28;20622;-65
2023/04/22 10:35:12;;;;;;;2.00;1.90;;;22.20;86.70;;;22.98;38.60;97230.13;5116325;28;20652;-65
2023/04/22 10:37:47;;;;;;;1.98;1.88;;;22.20;87.30;;;23.09;36.69;97227.47;5113560;29;20254;-65
2023/04/22 10:40:22;;;;;;;2.05;1.95;;;22.40;84.20;;;23.00;36.71;97230.09;5117435;28;20207;-64
2023/04/22 10:43:02;;;;;;;2.05;1.80;;;22.30;83.60;;;22.75;36.14;97219.72;5114349;28;20200;-65
2023/04/22 10:45:35;;;;;;;2.08;1.98;;;22.00;83.30;;;22.83;35.58;97212.72;5116324;28;20591;-65